Aérodrome :
LOGIN :

S'inscrire | Disclaimer

   EN    FR    IT 

 










Légende :    VFR   VFR Marginal   IFR   IFR Intensif   IFR Très Intensif
Visi : 
Plafond : 
>= 8 km
>= 3000ft
5 à 8 km
1000 à 3000 ft
1500m à 5 km
500 à 1000 ft
800 à 1500m
200 à 500 ft
< 800m
< 200 ft
Symboles :   Orages  Brouillard  Fortes neiges  Fortes précipitations  Vent > 20 kt
SIGMETs :   Divers  Orages  Givrage  Turbulence  Onde Orograph.  Cendres Volcan.







- Altitude de l'aérodrome : 645 ft
- Code IATA : DLE
- Voir les cartes d'approche


LFGJ - Dole Tavaux

DERNIER METAR :
  • 231530Z AUTO 19006KT CAVOK 10/05 Q1027 NOSIG

METARs EXPIRÉS :
  • 231500Z AUTO 18007KT 9999 BKN034 10/05 Q1027 NOSIG
  • 231430Z AUTO 18008KT 9999 OVC036 10/06 Q1027 NOSIG
  • 231400Z AUTO 19009KT 9999 OVC037 10/05 Q1027 NOSIG
  • 231330Z AUTO 20008KT 9999 OVC036 10/06 Q1027 NOSIG
  • 231300Z AUTO 22009KT 9999 OVC037 10/06 Q1028 NOSIG

TAF TAF LFGJ
Valide du 23 à 15h jusqu'au 24 à 00h UTC


231400Z 2315/2324 20008KT 9999 FEW015 BKN030
PROB40
TEMPO 2317/2323 -RA
Pas de NOTAMs connus pour ce terrain.



MET'MAP, la Météo Aéronautique d'un coup d'oeil ! - Copyright ORBIFLY Décembre 2007 - Disclaimer

ORBIFLY MET'MAP TEAM :

Programmation & Développement : Alexandra Zaïnal
Conception & Développement : Baudouin d'Aumeries
Co-Programmation & Développement : Marc-Olivier Méhu
Soutien technique & logistique : Manuel Goepfert

Contact : metmap@orbifly.com




SOURCES & CREDITS :

   NOAA